Terminal Aerodrome Forecast
Issued by NWS

Home | Current Version | Previous Version | Text Only | Print | Product List | Glossary On
Versions: 1 2 3 4 5 6 7 8 9 10 11 12 13 14 15 16 17 18 19 20 21 22 23 24 25 26 27 28 29 30 31 32 33 34
000
FTUS41 KOKX 220233 AAC
TAFGON
TAF AMD
KGON 220233Z 2203/2224 21011KT P6SM SCT045 SCT250
     FM220700 19006KT P6SM BKN045
     FM220900 19006KT 6SM -RA OVC035
     FM221100 19005KT 5SM -RA BR OVC010
     FM221300 VRB03KT 2SM -RA BR OVC007
     FM221600 33005KT 3SM -SHRA BR OVC009
     FM221800 33009KT P6SM SCT015 BKN030
     FM222100 33014G21KT P6SM SCT040 SCT250=

USA.gov is the U.S. government's official web portal to all federal, state and local government web resources and services.